Time;durP1;ratioP1;P1;durP2;ratioP2;P2;SDS_P1;SDS_P2;PMS_P1;PMS_P2;Temp;Humidity;BMP_temperature;BMP_pressure;BME280_temperature;BME280_humidity;BME280_pressure;Samples;Min_cycle;Max_cycle;Signal;HPM_P1;HPM_P2
2021/04/13 00:01:31;;;;;;;27.92;16.05;;;3.70;85.00;;;3.41;71.06;101968.94;4994118;28;20062;-83
2021/04/13 00:04:12;;;;;;;26.33;15.70;;;3.70;85.20;;;3.42;70.75;101967.97;4993757;28;20042;-83
2021/04/13 00:06:42;;;;;;;;;;;3.70;85.10;;;3.44;71.02;101966.91;4995426;28;20467;-83
2021/04/13 00:09:16;;;;;;;28.73;16.63;;;3.70;85.20;;;3.45;70.92;101970.47;4995683;28;20322;-83
2021/04/13 00:11:45;;;;;;;28.95;16.38;;;3.60;85.30;;;3.37;71.14;101968.31;4993035;28;20054;-83
2021/04/13 00:14:17;;;;;;;27.92;16.35;;;3.60;85.30;;;3.36;70.93;101973.78;4993953;28;20054;-83
2021/04/13 00:16:46;;;;;;;24.98;15.50;;;3.70;85.30;;;3.39;71.40;101973.56;4995777;28;20046;-83
2021/04/13 00:19:14;;;;;;;27.75;15.52;;;3.60;85.20;;;3.39;70.82;101971.75;4995465;28;20109;-84
2021/04/13 00:21:45;;;;;;;29.48;16.83;;;3.60;85.30;;;3.35;71.04;101975.63;4995530;28;20046;-83
2021/04/13 00:24:20;;;;;;;28.45;16.70;;;3.60;85.30;;;3.29;70.83;101976.00;4994626;28;20478;-83
2021/04/13 00:26:50;;;;;;;28.38;16.27;;;3.50;85.40;;;3.35;70.88;101967.53;4994701;28;20038;-83
2021/04/13 00:29:22;;;;;;;25.02;15.02;;;3.50;85.30;;;3.32;70.77;101979.34;4995902;28;20042;-83
2021/04/13 00:31:49;;;;;;;27.83;15.60;;;3.50;85.40;;;3.27;70.82;101975.22;4994478;28;20467;-83
2021/04/13 00:34:29;;;;;;;26.05;15.38;;;3.50;85.20;;;3.18;71.55;101976.72;4995004;28;20065;-83
2021/04/13 00:37:20;;;;;;;25.58;15.35;;;3.50;85.20;;;3.25;71.49;101977.16;4992444;28;20062;-83
2021/04/13 00:39:47;;;;;;;26.90;15.82;;;3.50;85.50;;;3.23;71.31;101979.94;4994956;28;20038;-83
2021/04/13 00:42:22;;;;;;;25.30;14.75;;;3.40;85.30;;;3.18;71.45;101973.16;4995416;28;20047;-83
2021/04/13 00:44:55;;;;;;;24.88;14.75;;;3.40;85.30;;;3.16;71.13;101961.63;4994572;28;20046;-83
2021/04/13 00:47:27;;;;;;;25.92;15.45;;;3.40;85.50;;;3.15;71.28;101976.91;4994418;28;20042;-83
2021/04/13 00:50:00;;;;;;;26.77;14.80;;;3.40;85.40;;;3.13;71.32;101978.84;4995935;28;20054;-83
2021/04/13 00:52:37;;;;;;;25.30;14.32;;;3.40;85.40;;;3.17;71.80;101974.13;4995719;28;20089;-83
2021/04/13 00:55:10;;;;;;;25.95;14.52;;;3.40;85.50;;;3.12;71.51;101972.59;4992724;28;20050;-83
2021/04/13 00:57:42;;;;;;;25.50;14.52;;;3.40;85.60;;;3.13;71.43;101974.31;4995050;28;20686;-83
2021/04/13 01:00:18;;;;;;;24.42;13.75;;;3.40;85.60;;;3.18;70.79;101976.72;4995347;28;20057;-83
2021/04/13 01:02:45;;;;;;;24.30;14.40;;;3.40;85.60;;;3.12;71.17;101972.59;4992758;28;20069;-83
2021/04/13 01:05:18;;;;;;;23.67;14.50;;;3.40;85.50;;;3.21;70.81;101975.66;4995479;28;20054;-83
2021/04/13 01:07:48;;;;;;;25.02;14.35;;;3.30;85.70;;;3.25;70.97;101974.47;4991411;28;20058;-83
2021/04/13 01:10:22;;;;;;;24.38;12.98;;;3.30;85.70;;;3.23;70.30;101969.19;4994417;28;20507;-83
2021/04/13 01:13:02;;;;;;;24.08;13.18;;;3.30;85.70;;;3.22;71.03;101970.16;4997290;28;20069;-83
2021/04/13 01:15:30;;;;;;;23.50;12.73;;;3.30;85.80;;;3.16;70.58;101973.28;4999365;28;20042;-84
2021/04/13 01:17:57;;;;;;;22.80;12.30;;;3.30;85.70;;;3.21;70.91;101975.66;4997198;28;20050;-83
2021/04/13 01:20:33;;;;;;;20.98;12.15;;;3.30;85.90;;;3.26;70.79;101973.53;4999271;28;20042;-83
2021/04/13 01:23:04;;;;;;;25.40;13.13;;;3.30;85.80;;;3.26;70.56;101968.16;4996497;28;20074;-83
2021/04/13 01:25:37;;;;;;;20.45;11.85;;;3.30;85.80;;;3.30;70.60;101967.81;4998165;28;20046;-83
2021/04/13 01:28:13;;;;;;;21.05;12.40;;;3.30;85.90;;;3.19;70.89;101975.75;4998705;28;20046;-83
2021/04/13 01:30:48;;;;;;;23.25;11.93;;;3.30;86.00;;;3.13;71.38;101985.06;4997716;28;20057;-83
2021/04/13 01:33:19;;;;;;;24.63;11.27;;;3.30;85.90;;;3.12;71.23;101979.78;4996861;28;20411;-83
2021/04/13 01:35:52;;;;;;;;;;;3.30;85.90;;;3.17;71.28;101974.97;4998734;28;20046;-83
2021/04/13 01:38:23;;;;;;;21.52;11.35;;;3.30;85.90;;;3.20;71.12;101979.28;4997327;28;19933;-83
2021/04/13 01:41:03;;;;;;;19.00;11.00;;;3.30;85.80;;;3.14;70.97;101980.56;4997288;28;20042;-83
2021/04/13 01:43:36;;;;;;;22.27;10.70;;;3.30;85.70;;;3.21;70.43;101973.81;4996381;28;20096;-83
2021/04/13 01:46:05;;;;;;;20.80;11.40;;;3.30;85.80;;;3.27;70.23;101980.63;4996979;28;20045;-83
2021/04/13 01:48:33;;;;;;;22.48;11.38;;;3.30;85.70;;;3.30;69.96;101980.44;4998341;28;20050;-83
2021/04/13 01:51:04;;;;;;;18.30;10.95;;;3.40;85.80;;;3.23;70.64;101981.78;4996949;28;20136;-83
2021/04/13 01:53:38;;;;;;;22.48;10.75;;;3.30;85.90;;;3.22;70.54;101986.31;4997889;28;20042;-83
2021/04/13 01:56:09;;;;;;;19.67;10.73;;;3.30;85.90;;;3.19;71.12;101977.56;4998014;28;20038;-83
2021/04/13 01:58:42;;;;;;;20.85;11.50;;;3.30;85.80;;;3.33;70.80;101980.22;4997640;28;20474;-83
2021/04/13 02:01:17;;;;;;;20.35;10.88;;;3.30;85.80;;;3.32;70.33;101973.13;4997903;28;20457;-83
2021/04/13 02:03:52;;;;;;;18.55;10.65;;;3.50;86.00;;;3.25;70.55;101979.84;4995133;28;20046;-83
2021/04/13 02:06:27;;;;;;;19.50;11.35;;;3.30;85.90;;;3.09;71.13;101985.38;4997408;28;20046;-83
2021/04/13 02:09:06;;;;;;;19.80;11.35;;;3.30;85.80;;;3.05;71.18;101987.41;4997985;28;20069;-83
2021/04/13 02:11:34;;;;;;;20.10;10.38;;;3.30;85.70;;;3.05;71.07;101976.66;4997309;28;20065;-83
2021/04/13 02:14:07;;;;;;;19.13;11.05;;;3.30;85.90;;;3.04;71.07;101985.66;4997439;28;20050;-83
2021/04/13 02:16:45;;;;;;;19.85;10.82;;;3.30;85.60;;;3.10;70.47;101988.00;4998547;28;20054;-83
2021/04/13 02:19:12;;;;;;;21.67;10.98;;;3.30;85.60;;;3.05;70.74;101984.72;4998016;28;20069;-83
2021/04/13 02:21:45;;;;;;;22.65;10.73;;;3.30;85.70;;;3.01;71.34;101983.19;4998404;28;20120;-83
2021/04/13 02:24:15;;;;;;;26.20;11.30;;;3.30;85.60;;;3.09;71.14;101994.31;4996527;28;20046;-83
2021/04/13 02:26:48;;;;;;;24.80;12.35;;;3.20;85.60;;;3.03;70.55;101989.34;4997316;28;20049;-84
2021/04/13 02:29:18;;;;;;;23.30;11.40;;;3.20;85.60;;;2.98;71.16;101991.44;4993944;28;20057;-83
2021/04/13 02:31:54;;;;;;;19.45;10.38;;;3.20;85.60;;;3.01;71.08;101996.66;4995794;28;20092;-83
2021/04/13 02:34:25;;;;;;;21.38;11.25;;;3.20;85.50;;;2.99;70.96;101995.00;4996962;28;20046;-83
2021/04/13 02:36:55;;;;;;;22.85;12.23;;;3.20;85.60;;;2.95;71.02;101988.94;4996652;28;20491;-83
2021/04/13 02:39:26;;;;;;;21.40;10.68;;;3.20;85.50;;;2.89;71.45;101989.34;4996342;28;20042;-83
2021/04/13 02:41:59;;;;;;;18.38;10.23;;;3.20;85.40;;;2.91;70.87;101990.13;4995634;28;20109;-83
2021/04/13 02:44:27;;;;;;;18.30;10.98;;;3.20;85.50;;;2.95;71.22;101991.63;4996101;28;20093;-83
2021/04/13 02:47:00;;;;;;;24.13;11.07;;;3.10;85.60;;;2.95;71.02;101988.94;4996124;28;20077;-83
2021/04/13 02:49:29;;;;;;;19.10;10.50;;;3.10;85.70;;;3.01;71.00;101988.56;4993807;28;20456;-84
2021/04/13 02:51:59;;;;;;;19.45;10.93;;;3.10;85.60;;;2.97;70.61;101984.38;4996614;28;20665;-83
2021/04/13 02:54:31;;;;;;;20.65;10.68;;;3.10;85.70;;;2.96;70.90;101993.38;4995460;28;20045;-83
2021/04/13 02:57:02;;;;;;;22.13;10.50;;;3.10;85.80;;;2.92;70.30;101986.47;4997282;28;20050;-83
2021/04/13 02:59:31;;;;;;;;;;;3.10;85.70;;;2.80;71.21;101992.63;4997501;28;20054;-83
2021/04/13 03:02:08;;;;;;;19.63;9.63;;;3.10;85.70;;;2.82;71.45;101986.22;4996585;28;19941;-83
2021/04/13 03:04:38;;;;;;;19.17;9.73;;;3.10;85.70;;;2.76;71.74;101994.66;4996150;28;20042;-83
2021/04/13 03:07:05;;;;;;;19.33;9.82;;;3.00;85.60;;;2.79;71.18;101993.59;4996469;28;20078;-83
2021/04/13 03:09:37;;;;;;;21.33;11.05;;;3.00;85.70;;;2.76;71.06;101991.09;4996189;28;20050;-83
2021/04/13 03:12:08;;;;;;;17.08;10.57;;;3.00;85.80;;;2.77;71.20;101998.22;4996650;28;20054;-83
2021/04/13 03:14:39;;;;;;;19.25;10.88;;;3.00;85.70;;;2.83;71.52;101992.44;4995936;28;20069;-83
2021/04/13 03:17:13;;;;;;;20.63;10.60;;;3.00;85.80;;;2.88;71.17;101993.03;4997140;28;20042;-83
2021/04/13 03:19:42;;;;;;;21.60;10.40;;;3.00;85.90;;;2.88;71.26;101991.19;4993324;28;20053;-84
2021/04/13 03:22:10;;;;;;;20.73;10.48;;;3.00;85.70;;;2.94;70.75;101989.94;4994374;28;20046;-83
2021/04/13 03:24:41;;;;;;;20.48;10.43;;;3.00;86.10;;;2.91;70.95;101992.81;4996352;28;20499;-83
2021/04/13 03:27:12;;;;;;;18.48;9.90;;;2.90;86.00;;;2.95;70.55;101997.00;4995176;28;20117;-83
2021/04/13 03:29:51;;;;;;;17.13;10.07;;;3.00;86.20;;;2.91;70.65;101999.06;4995834;28;20042;-83
2021/04/13 03:32:23;;;;;;;15.98;9.45;;;3.00;86.20;;;2.78;71.38;101997.22;4994788;28;20046;-83
2021/04/13 03:34:51;;;;;;;18.15;10.40;;;3.00;86.40;;;2.82;70.78;102001.44;4995061;28;20038;-83
2021/04/13 03:37:18;;;;;;;21.58;10.18;;;3.00;85.90;;;2.81;70.51;102005.13;4994972;28;20057;-83
2021/04/13 03:39:47;;;;;;;18.25;9.82;;;3.00;85.90;;;2.77;71.31;102008.97;4995895;28;20038;-83
2021/04/13 03:42:18;;;;;;;19.80;10.40;;;2.90;86.00;;;2.85;70.80;102007.50;4995916;28;20073;-83
2021/04/13 03:44:46;;;;;;;19.15;10.18;;;2.90;85.80;;;2.80;70.29;102003.38;4994312;28;20436;-83
2021/04/13 03:47:20;;;;;;;19.08;10.95;;;2.90;86.00;;;2.81;70.97;102007.81;4996107;28;20085;-83
2021/04/13 03:49:47;;;;;;;16.65;9.48;;;3.00;86.00;;;2.83;71.07;102008.56;4995183;28;20484;-83
2021/04/13 03:52:21;;;;;;;21.27;10.32;;;2.80;86.00;;;2.74;70.42;102007.31;4996545;28;20069;-83
2021/04/13 03:54:49;;;;;;;18.50;10.65;;;2.80;85.70;;;2.76;70.73;102010.78;4995983;28;20050;-83
2021/04/13 03:57:30;;;;;;;18.13;9.88;;;2.90;85.90;;;2.70;70.67;102009.34;4995636;28;20054;-83
2021/04/13 03:59:58;;;;;;;20.05;11.27;;;2.90;86.10;;;2.64;70.58;102011.56;4995855;28;20097;-83
2021/04/13 04:02:26;;;;;;;18.70;10.73;;;2.80;85.80;;;2.58;70.92;102007.44;4996344;28;20125;-83
2021/04/13 04:05:10;;;;;;;18.63;10.07;;;2.80;85.90;;;2.51;70.90;102008.75;4995776;28;20132;-83
2021/04/13 04:07:42;;;;;;;20.65;10.70;;;2.80;85.80;;;2.49;71.70;102005.31;4995597;28;20046;-83
2021/04/13 04:10:46;;;;;;;24.75;10.50;;;2.80;85.80;;;2.50;71.56;102009.75;4994193;28;20114;-83
2021/04/13 04:13:25;;;;;;;20.98;11.43;;;2.80;86.00;;;2.48;72.00;102006.28;4992595;28;20050;-83
2021/04/13 04:16:03;;;;;;;22.10;11.50;;;2.80;86.20;;;2.55;71.82;102015.66;4996274;28;20480;-87
2021/04/13 04:18:35;;;;;;;20.70;12.55;;;2.70;86.40;;;2.66;71.93;102013.16;4995479;28;20113;-84
2021/04/13 04:21:27;;;;;;;21.02;12.38;;;2.80;86.60;;;2.84;71.03;102008.47;4993853;28;20053;-83
2021/04/13 04:23:56;;;;;;;25.25;12.10;;;2.80;86.70;;;2.81;70.90;102010.50;4994069;28;20570;-84
2021/04/13 04:26:29;;;;;;;26.13;12.45;;;2.80;86.80;;;2.77;71.49;102011.66;4994002;28;20042;-85
2021/04/13 04:29:17;;;;;;;20.73;11.88;;;2.80;86.90;;;2.72;71.59;102015.50;4994272;28;20053;-85
2021/04/13 04:31:45;;;;;;;24.45;12.55;;;2.80;86.90;;;2.71;71.88;102019.13;4994590;28;20493;-85
2021/04/13 04:34:48;;;;;;;20.63;12.90;;;2.80;87.10;;;2.87;70.97;102015.47;4993779;28;20038;-85
2021/04/13 04:37:33;;;;;;;22.02;13.20;;;2.80;87.10;;;2.95;70.92;102031.97;4992071;28;20053;-85
2021/04/13 04:40:47;;;;;;;25.55;13.68;;;2.80;87.10;;;2.97;70.55;102022.00;4992731;28;20665;-85
2021/04/13 04:43:18;;;;;;;24.95;13.10;;;2.80;87.20;;;3.02;70.54;102033.31;4994100;28;20471;-85
2021/04/13 04:45:53;;;;;;;24.55;13.80;;;2.80;87.10;;;2.84;70.38;102035.38;4993367;28;20062;-84
2021/04/13 04:48:32;;;;;;;25.20;14.73;;;2.80;87.00;;;2.73;71.49;102045.94;4996620;28;20050;-84
2021/04/13 04:51:04;;;;;;;23.33;14.30;;;2.80;87.10;;;2.65;71.71;102043.72;4997173;28;20046;-85
2021/04/13 04:53:35;;;;;;;26.55;14.57;;;2.80;87.00;;;2.72;71.31;102045.06;4996508;28;20042;-85
2021/04/13 04:56:05;;;;;;;23.88;14.07;;;2.80;87.10;;;2.80;71.15;102046.38;4996989;28;20101;-85
2021/04/13 04:58:32;;;;;;;23.40;13.90;;;2.80;87.30;;;2.80;71.91;102055.34;4995854;28;20073;-85
2021/04/13 05:01:00;;;;;;;27.50;15.02;;;2.80;87.40;;;2.88;71.40;102049.47;4997746;28;20046;-85
2021/04/13 05:03:28;;;;;;;24.63;14.82;;;2.80;87.60;;;2.92;71.63;102051.00;4997302;28;20042;-85
2021/04/13 05:05:57;;;;;;;27.02;14.70;;;2.90;87.90;;;3.06;71.79;102058.19;4997473;28;20058;-85
2021/04/13 05:08:25;;;;;;;27.88;14.35;;;2.90;88.20;;;3.15;71.31;102060.31;4998077;28;20070;-85
2021/04/13 05:10:53;;;;;;;25.55;14.65;;;3.00;88.40;;;3.12;71.85;102057.78;4997564;28;20038;-85
2021/04/13 05:13:21;;;;;;;27.25;14.30;;;3.00;88.50;;;3.18;71.90;102061.91;4996047;28;20097;-85
2021/04/13 05:15:48;;;;;;;25.38;14.75;;;3.00;88.70;;;3.21;72.11;102061.72;4997772;28;20046;-85
2021/04/13 05:18:16;;;;;;;25.70;14.10;;;3.00;88.80;;;3.33;71.53;102060.94;4997332;28;20446;-85
2021/04/13 05:20:43;;;;;;;27.80;14.60;;;3.10;89.10;;;3.24;72.60;102070.47;4997697;28;20057;-84
2021/04/13 05:23:10;;;;;;;25.52;14.10;;;3.10;89.10;;;3.33;71.82;102069.00;4995912;28;20046;-84
2021/04/13 05:25:38;;;;;;;24.88;14.35;;;3.20;89.20;;;3.42;72.06;102065.72;4996449;28;20054;-85
2021/04/13 05:28:06;;;;;;;25.92;14.82;;;3.20;89.20;;;3.49;72.11;102067.06;4996081;28;20046;-86
2021/04/13 05:30:32;;;;;;;24.55;13.88;;;3.30;89.50;;;3.53;71.71;102078.47;4996245;28;20118;-84
2021/04/13 05:32:59;;;;;;;29.90;15.40;;;3.30;89.40;;;3.58;72.10;102078.16;4996420;28;20057;-84
2021/04/13 05:35:26;;;;;;;28.95;15.70;;;3.40;89.50;;;3.63;72.18;102084.13;4995978;28;20510;-85
2021/04/13 05:37:53;;;;;;;26.77;14.80;;;3.40;89.60;;;3.59;72.21;102086.16;4996845;28;20117;-84
2021/04/13 05:40:24;;;;;;;23.70;14.48;;;3.50;89.40;;;3.67;72.30;102093.72;4997283;28;20054;-85
2021/04/13 05:42:55;;;;;;;27.90;15.07;;;3.50;89.30;;;3.71;72.31;102092.56;4996064;28;20058;-85
2021/04/13 05:45:24;;;;;;;25.17;14.40;;;3.50;89.40;;;3.71;72.16;102103.31;4991363;28;20517;-86
2021/04/13 05:47:51;;;;;;;25.33;14.02;;;3.60;89.50;;;3.73;71.94;102101.41;4994164;28;20050;-86
2021/04/13 05:50:26;;;;;;;23.90;13.95;;;3.60;89.40;;;3.73;71.83;102098.69;4991635;28;20054;-86
2021/04/13 05:52:53;;;;;;;25.88;15.35;;;3.60;89.20;;;3.75;72.23;102110.25;4993135;28;20499;-87
2021/04/13 05:55:20;;;;;;;26.60;15.10;;;3.70;89.30;;;3.71;72.46;102103.31;4994057;28;20038;-87
2021/04/13 05:57:51;;;;;;;29.35;15.02;;;3.60;89.30;;;3.71;73.17;102111.41;4993179;28;20077;-87
2021/04/13 06:00:25;;;;;;;27.20;15.75;;;3.70;89.30;;;3.72;72.73;102116.69;4991463;28;20053;-87
2021/04/13 06:02:53;;;;;;;27.60;14.70;;;3.80;89.30;;;3.79;72.65;102116.28;4990626;28;20069;-85
2021/04/13 06:05:24;;;;;;;24.75;14.15;;;3.80;89.20;;;3.83;72.68;102118.69;4992298;28;20518;-84
2021/04/13 06:07:51;;;;;;;23.70;14.05;;;3.80;89.20;;;3.90;72.66;102125.41;4995255;28;20046;-84
2021/04/13 06:10:18;;;;;;;26.38;13.98;;;3.90;89.40;;;3.92;72.22;102128.84;4994518;28;20121;-86
2021/04/13 06:12:51;;;;;;;29.80;15.52;;;3.90;89.40;;;3.96;72.83;102123.25;4993826;28;20057;-85
2021/04/13 06:15:21;;;;;;;23.13;13.65;;;4.00;89.40;;;3.95;73.05;102121.53;4997496;28;20030;-84
2021/04/13 06:17:48;;;;;;;22.83;13.10;;;4.00;89.50;;;3.99;72.93;102129.31;4996402;28;20518;-84
2021/04/13 06:20:17;;;;;;;24.20;12.82;;;4.00;89.20;;;4.00;72.93;102131.03;4997470;28;20112;-84
2021/04/13 06:22:44;;;;;;;23.98;13.57;;;4.10;89.40;;;4.04;72.68;102131.72;4991820;28;20054;-85
2021/04/13 06:25:12;;;;;;;30.88;14.38;;;4.10;89.40;;;4.07;73.18;102140.44;4992566;28;20051;-85
2021/04/13 06:27:40;;;;;;;23.05;13.98;;;4.20;89.20;;;4.10;72.93;102137.53;4993627;28;20053;-85
2021/04/13 06:30:08;;;;;;;25.52;14.02;;;4.30;89.40;;;4.16;73.79;102143.50;4992446;28;20050;-85
2021/04/13 06:32:36;;;;;;;24.92;12.60;;;4.40;89.30;;;4.20;73.65;102143.16;4993072;28;20046;-86
2021/04/13 06:35:04;;;;;;;27.33;13.07;;;4.40;89.30;;;4.25;73.78;102143.72;4992660;28;20042;-83
2021/04/13 06:37:31;;;;;;;28.15;12.65;;;4.50;89.40;;;4.30;73.45;102147.00;4994240;28;20455;-86
2021/04/13 06:39:58;;;;;;;24.65;11.40;;;4.60;89.40;;;4.37;73.72;102154.66;4990960;28;20118;-86
2021/04/13 06:42:48;;;;;;;20.00;9.18;;;4.70;89.30;;;4.39;73.83;102147.31;4993194;28;20053;-85
2021/04/13 06:45:29;;;;;;;18.45;8.98;;;4.80;89.00;;;4.45;74.34;102153.16;4992290;28;20042;-86
2021/04/13 06:48:43;;;;;;;19.23;8.40;;;4.80;89.10;;;4.54;73.90;102150.81;4992281;28;20047;-86
2021/04/13 06:51:20;;;;;;;23.77;8.98;;;4.90;89.20;;;4.62;74.50;102152.00;4990446;28;20092;-85
2021/04/13 06:54:09;;;;;;;126.80;15.18;;;5.10;89.10;;;4.67;75.00;102154.41;4992057;28;20050;-84
2021/04/13 06:57:07;;;;;;;20.27;7.82;;;5.20;89.10;;;4.76;74.07;102155.56;4992772;28;20046;-83
2021/04/13 07:00:27;;;;;;;22.17;8.23;;;5.30;88.80;;;4.84;74.04;102154.09;4991421;28;20038;-84
2021/04/13 07:03:20;;;;;;;25.52;8.88;;;5.40;88.10;;;4.89;74.19;102162.72;4986867;28;20054;-84
2021/04/13 07:05:53;;;;;;;17.70;8.57;;;5.50;87.90;;;4.95;73.86;102165.94;4990965;28;20026;-84
2021/04/13 07:08:30;;;;;;;25.70;8.77;;;5.60;87.70;;;5.01;73.98;102157.44;4992496;28;20708;-85
2021/04/13 07:11:05;;;;;;;20.23;7.82;;;5.70;87.80;;;5.06;73.24;102166.06;4993657;28;20061;-83
2021/04/13 07:13:42;;;;;;;19.73;7.72;;;5.80;87.00;;;5.14;73.54;102165.53;4992196;28;20057;-84
2021/04/13 07:16:16;;;;;;;23.65;7.43;;;5.90;86.60;;;5.20;74.10;102165.97;4991705;28;20054;-84
2021/04/13 07:18:55;;;;;;;21.92;8.02;;;6.00;86.60;;;5.26;73.33;102168.22;4992846;28;20364;-84
2021/04/13 07:21:28;;;;;;;21.08;7.55;;;6.10;86.30;;;5.33;73.21;102165.97;4993127;28;20049;-83
2021/04/13 07:24:01;;;;;;;16.92;7.57;;;6.20;85.90;;;5.38;72.59;102163.78;4993559;28;20069;-82
2021/04/13 07:26:35;;;;;;;21.13;7.82;;;6.30;85.30;;;5.43;72.93;102169.72;4993767;28;20140;-81
2021/04/13 07:29:12;;;;;;;21.58;8.50;;;6.40;85.00;;;5.52;72.96;102170.00;4995063;28;20414;-83
2021/04/13 07:31:58;;;;;;;23.90;8.15;;;6.50;85.30;;;5.54;72.21;102168.94;4993765;28;20513;-82
2021/04/13 07:34:27;;;;;;;32.63;9.00;;;6.50;84.50;;;5.57;72.92;102167.84;4992807;28;20097;-82
2021/04/13 07:37:01;;;;;;;19.88;8.00;;;6.60;84.50;;;5.62;71.99;102171.09;4992693;28;20080;-82
2021/04/13 07:39:33;;;;;;;21.52;7.97;;;6.60;84.10;;;5.69;72.72;102169.66;4992506;28;20318;-82
2021/04/13 07:42:11;;;;;;;21.25;7.40;;;6.70;84.50;;;5.75;72.68;102171.03;4993599;28;20499;-84
2021/04/13 07:45:09;;;;;;;25.58;7.00;;;6.70;84.50;;;5.80;72.01;102163.47;4992967;28;20038;-86
2021/04/13 07:48:11;;;;;;;22.80;7.72;;;6.80;84.40;;;5.90;72.25;102158.25;4991352;28;20046;-86
2021/04/13 07:51:08;;;;;;;21.00;7.75;;;6.90;83.90;;;6.00;72.31;102165.59;4991278;28;20054;-86
2021/04/13 07:53:47;;;;;;;23.60;8.27;;;7.00;83.60;;;5.99;71.21;102171.13;4988939;28;20495;-85
2021/04/13 07:56:30;;;;;;;24.63;8.20;;;7.10;82.60;;;5.99;71.17;102171.97;4990211;28;20042;-86
2021/04/13 07:59:03;;;;;;;20.77;7.38;;;7.10;82.50;;;6.02;71.00;102174.47;4992537;28;20046;-86
2021/04/13 08:01:30;;;;;;;17.42;7.00;;;7.20;81.50;;;6.06;71.44;102167.00;4993428;28;20093;-86
2021/04/13 08:03:57;;;;;;;26.20;8.50;;;7.20;82.20;;;6.10;71.43;102170.31;4993921;28;20055;-85
2021/04/13 08:06:52;;;;;;;18.30;8.02;;;7.20;82.40;;;6.17;72.30;102167.06;4993901;28;20049;-85
2021/04/13 08:09:39;;;;;;;20.80;5.78;;;7.30;82.60;;;6.22;71.42;102169.38;4993150;28;20046;-85
2021/04/13 08:12:23;;;;;;;24.08;5.22;;;7.30;82.40;;;6.24;71.32;102179.13;4991025;28;20042;-85
2021/04/13 08:15:16;;;;;;;22.27;6.13;;;7.40;82.10;;;6.24;70.83;102173.72;4991490;28;20708;-85
2021/04/13 08:18:07;;;;;;;22.92;6.32;;;7.40;81.70;;;6.28;70.92;102178.88;4991173;28;20400;-84
2021/04/13 08:21:58;;;;;;;17.30;5.88;;;7.40;81.60;;;6.31;70.87;102179.53;4991969;28;20346;-84
2021/04/13 08:28:46;;;;;;;20.20;4.53;;;7.50;81.80;;;6.40;70.92;102180.69;4891475;28;20057;-84
2021/04/13 08:34:41;;;;;;;13.07;3.33;;;7.50;79.90;;;6.44;69.42;102188.44;4996322;28;20062;-84
2021/04/13 08:37:15;;;;;;;10.10;2.92;;;7.50;79.60;;;6.45;69.92;102178.47;4996757;28;20046;-85
2021/04/13 08:39:49;;;;;;;13.85;3.20;;;7.50;80.30;;;6.44;69.99;102184.88;4998093;28;20059;-84
2021/04/13 08:42:30;;;;;;;15.32;3.28;;;7.60;80.40;;;6.45;70.06;102182.06;4998009;28;20053;-85
2021/04/13 08:45:01;;;;;;;16.02;3.38;;;7.60;80.30;;;6.54;71.45;102185.03;4996231;28;20089;-84
2021/04/13 08:47:39;;;;;;;14.45;2.85;;;7.70;81.00;;;6.69;71.05;102188.41;4997276;28;20054;-84
2021/04/13 08:50:37;;;;;;;15.55;2.90;;;7.80;81.40;;;6.73;69.37;102187.19;4995463;28;20038;-84
2021/04/13 08:53:07;;;;;;;13.57;2.13;;;7.90;80.00;;;6.74;68.20;102183.47;4994496;28;20054;-85
2021/04/13 08:55:49;;;;;;;12.20;2.00;;;7.90;79.10;;;6.75;68.51;102185.22;4997475;28;20464;-84
2021/04/13 08:58:33;;;;;;;14.13;2.72;;;7.90;78.70;;;6.76;67.96;102187.81;4995923;28;20039;-84
2021/04/13 09:01:00;;;;;;;14.10;2.53;;;8.00;78.60;;;6.81;68.22;102188.31;4998864;28;20046;-84
2021/04/13 09:03:43;;;;;;;16.40;3.28;;;8.00;76.80;;;6.80;67.05;102181.19;4998789;28;20070;-85
2021/04/13 09:06:13;;;;;;;13.50;2.58;;;8.00;77.30;;;6.81;67.30;102182.03;4999466;28;20121;-84
2021/04/13 09:08:54;;;;;;;13.50;2.80;;;8.00;77.00;;;6.81;66.97;102177.47;4996988;28;20065;-84
2021/04/13 09:11:36;;;;;;;17.83;2.95;;;8.00;77.10;;;6.89;67.21;102186.84;5000829;28;20034;-84
2021/04/13 09:14:12;;;;;;;12.23;2.20;;;8.00;77.00;;;6.91;66.69;102185.78;4997669;28;20441;-84
2021/04/13 09:16:55;;;;;;;8.50;1.48;;;8.00;76.40;;;7.00;64.52;102182.31;5001302;28;20050;-85
2021/04/13 09:19:27;;;;;;;15.73;2.60;;;8.10;75.90;;;7.03;63.18;102186.66;4998392;28;20050;-84
2021/04/13 09:21:54;;;;;;;12.50;1.92;;;8.30;73.10;;;7.03;64.00;102182.09;4998660;28;20042;-84
2021/04/13 09:24:36;;;;;;;10.68;1.98;;;8.30;73.60;;;7.00;63.30;102179.63;4998198;28;20042;-84
2021/04/13 09:27:26;;;;;;;10.77;1.83;;;8.20;73.30;;;7.01;63.63;102180.50;4995656;28;20466;-84
2021/04/13 09:29:55;;;;;;;13.38;2.10;;;8.20;73.50;;;6.98;62.75;102184.28;4997933;28;20479;-84
2021/04/13 09:32:40;;;;;;;16.20;2.63;;;8.20;73.30;;;6.95;62.80;102184.53;4998381;28;20068;-85
2021/04/13 09:35:30;;;;;;;14.73;3.20;;;8.20;72.80;;;7.00;64.20;102184.16;4995408;28;20046;-84
2021/04/13 09:38:17;;;;;;;10.60;2.05;;;8.20;74.20;;;7.07;64.72;102176.44;4997570;28;20046;-84
2021/04/13 09:41:00;;;;;;;8.88;2.22;;;8.30;73.90;;;7.13;63.01;102165.97;4999557;28;20053;-84
2021/04/13 09:43:45;;;;;;;14.00;2.97;;;8.40;73.10;;;7.21;62.57;102174.34;4995131;28;20046;-84
2021/04/13 09:46:29;;;;;;;12.27;2.50;;;8.50;72.00;;;7.26;62.14;102171.28;4997612;28;20096;-84
2021/04/13 09:49:26;;;;;;;11.00;2.30;;;8.50;71.50;;;7.31;61.72;102173.63;4996659;28;20051;-84
2021/04/13 09:52:30;;;;;;;11.20;2.40;;;8.60;71.40;;;7.35;62.32;102169.69;4994324;28;20050;-84
2021/04/13 09:55:12;;;;;;;12.30;3.00;;;8.60;71.80;;;7.41;63.18;102152.97;4999594;28;20046;-85
2021/04/13 09:58:32;;;;;;;12.80;1.90;;;8.70;72.20;;;7.48;61.18;102159.56;4997820;28;20045;-84
2021/04/13 10:01:14;;;;;;;12.38;2.00;;;8.70;70.00;;;7.48;61.06;102154.16;4994632;28;20054;-83
2021/04/13 10:04:48;;;;;;;11.10;2.03;;;8.80;70.80;;;7.56;62.54;102151.72;4993948;28;20050;-84
2021/04/13 10:07:42;;;;;;;8.25;2.25;;;8.90;70.80;;;7.61;61.52;102154.03;4969617;28;20743;-84
2021/04/13 10:10:22;;;;;;;11.75;1.90;;;8.90;70.00;;;7.66;60.44;102140.97;4991940;28;20106;-84
2021/04/13 10:13:47;;;;;;;11.65;2.33;;;9.00;69.80;;;7.69;60.06;102148.00;4995772;28;20050;-84
2021/04/13 10:16:28;;;;;;;13.30;1.95;;;9.00;69.50;;;7.72;60.81;102143.19;4995449;28;20046;-84
2021/04/13 10:19:19;;;;;;;9.25;2.50;;;9.10;68.80;;;7.69;60.66;102146.16;4995254;28;20038;-84
2021/04/13 10:22:43;;;;;;;5.43;1.25;;;9.10;69.70;;;7.74;59.42;102149.34;4995833;28;20046;-82
2021/04/13 10:25:48;;;;;;;12.90;2.13;;;9.10;67.90;;;7.79;58.79;102141.69;4984123;28;20054;-81
2021/04/13 10:29:00;;;;;;;10.57;1.98;;;9.20;66.70;;;7.77;57.90;102138.25;4994607;28;20061;-81
2021/04/13 10:32:28;;;;;;;;;;;9.10;67.50;;;7.77;57.98;102140.97;4996165;28;20043;-82
2021/04/13 10:35:47;;;;;;;7.53;1.30;;;9.20;68.30;;;7.76;57.77;102141.94;4971724;28;19933;-82
2021/04/13 10:39:18;;;;;;;11.07;1.70;;;9.20;67.20;;;7.72;57.06;102145.03;4993863;28;20097;-78
2021/04/13 10:42:18;;;;;;;8.23;2.33;;;9.20;66.30;;;7.72;57.64;102135.06;4995417;28;20061;-83
2021/04/13 10:45:51;;;;;;;7.88;1.52;;;9.10;66.30;;;7.76;56.53;102122.97;4968538;28;20051;-83
2021/04/13 10:49:00;;;;;;;10.35;1.42;;;9.10;65.40;;;7.80;57.50;102118.16;4991746;28;20593;-81
2021/04/13 10:52:15;;;;;;;8.68;1.48;;;9.10;66.60;;;7.86;56.49;102116.78;4992106;28;20322;-82
2021/04/13 10:55:27;;;;;;;12.40;1.67;;;9.20;65.50;;;7.87;56.25;102118.53;4992610;28;20141;-81
2021/04/13 10:58:33;;;;;;;;;;;9.20;63.90;;;7.86;56.43;102123.06;4992588;28;20054;-81
2021/04/13 11:01:55;;;;;;;7.75;1.60;;;9.10;63.10;;;7.85;56.06;102121.34;4993574;28;20304;-82
2021/04/13 11:05:10;;;;;;;6.85;1.20;;;9.10;64.40;;;7.85;54.71;102120.50;4992588;28;20043;-82
2021/04/13 11:08:34;;;;;;;8.77;2.10;;;9.20;64.10;;;7.85;55.55;102112.38;4992217;28;20614;-82
2021/04/13 11:11:51;;;;;;;6.13;1.13;;;9.20;65.20;;;7.89;54.79;102113.84;4993115;28;20049;-82
2021/04/13 11:15:04;;;;;;;8.82;1.60;;;9.20;63.70;;;7.91;54.78;102111.84;4991525;28;20105;-81